Time;durP1;ratioP1;P1;durP2;ratioP2;P2;SDS_P1;SDS_P2;PMS_P1;PMS_P2;Temp;Humidity;BMP_temperature;BMP_pressure;BME280_temperature;BME280_humidity;BME280_pressure;Samples;Min_cycle;Max_cycle;Signal;HPM_P1;HPM_P2
2024/01/26 00:02:00;;;;;;;2.50;1.90;;;;;;;2.06;98.32;98661.70;106011;1262;72777;-82
2024/01/26 00:04:27;;;;;;;3.70;2.30;;;;;;;2.09;97.95;98665.55;106750;1262;60458;-86
2024/01/26 00:06:58;;;;;;;3.50;2.40;;;;;;;2.12;97.82;98667.24;107684;1263;58904;-82
2024/01/26 00:09:38;;;;;;;3.80;2.30;;;;;;;2.06;98.03;98675.10;108065;1263;72628;-83
2024/01/26 00:12:46;;;;;;;3.30;2.50;;;;;;;2.01;97.25;98675.96;107362;1262;70493;-83
2024/01/26 00:15:14;;;;;;;3.90;2.40;;;;;;;2.02;97.41;98678.29;105870;1267;73070;-84
2024/01/26 00:17:41;;;;;;;2.70;2.20;;;;;;;2.01;97.59;98680.64;105849;1262;60449;-81
2024/01/26 00:20:09;;;;;;;3.50;2.80;;;;;;;1.94;97.84;98680.96;105569;1263;60640;-83
2024/01/26 00:22:36;;;;;;;4.90;2.80;;;;;;;1.91;98.10;98684.16;105772;1265;73856;-85
2024/01/26 00:25:03;;;;;;;3.00;2.10;;;;;;;1.94;97.68;98684.38;107636;1262;69338;-83
2024/01/26 00:27:30;;;;;;;2.20;1.90;;;;;;;1.93;97.51;98680.95;108687;1262;71480;-81
2024/01/26 00:29:56;;;;;;;3.50;2.50;;;;;;;1.87;97.86;98679.97;107636;1262;60384;-81
2024/01/26 00:32:23;;;;;;;3.40;1.70;;;;;;;1.86;97.95;98675.73;106254;1263;60677;-82
2024/01/26 00:34:50;;;;;;;2.50;1.80;;;;;;;1.93;97.77;98675.80;106273;1262;73966;-83
2024/01/26 00:37:17;;;;;;;2.50;1.80;;;;;;;1.96;97.70;98682.96;106062;1262;70127;-82
2024/01/26 00:39:43;;;;;;;2.40;1.90;;;;;;;1.94;98.16;98684.38;105644;1266;72502;-83
2024/01/26 00:42:10;;;;;;;2.20;1.70;;;;;;;1.90;98.42;98686.88;105480;1262;60597;-81
2024/01/26 00:44:37;;;;;;;1.90;1.30;;;;;;;1.90;98.08;98690.92;105415;1267;60451;-84
2024/01/26 00:47:04;;;;;;;2.70;1.80;;;;;;;1.94;98.01;98689.27;106592;1266;74007;-80
2024/01/26 00:49:30;;;;;;;3.30;2.00;;;;;;;1.91;98.12;98688.85;106859;1264;70201;-82
2024/01/26 00:52:13;;;;;;;3.00;1.80;;;;;;;1.83;97.69;98694.11;105718;1267;71616;-81
2024/01/26 00:54:39;;;;;;;2.70;1.60;;;;;;;1.87;98.04;98695.39;105840;1264;61073;-80
2024/01/26 00:57:06;;;;;;;3.30;1.50;;;;;;;1.93;97.87;98697.92;107240;1263;59255;-82
2024/01/26 00:59:33;;;;;;;2.40;2.00;;;;;;;1.91;97.70;98700.73;105815;1264;73925;-84
2024/01/26 01:01:59;;;;;;;2.60;1.90;;;;;;;1.85;98.09;98701.48;105439;1262;70186;-84
2024/01/26 01:04:27;;;;;;;2.50;1.80;;;;;;;1.87;97.47;98698.49;105772;1262;71502;-81
2024/01/26 01:06:53;;;;;;;2.90;1.90;;;;;;;1.87;97.01;98703.90;106315;1262;60374;-85
2024/01/26 01:09:20;;;;;;;3.00;1.80;;;;;;;1.77;97.15;98699.05;107347;1263;60342;-83
2024/01/26 01:11:46;;;;;;;3.00;2.30;;;;;;;1.74;97.64;98704.50;106708;1263;72480;-81
2024/01/26 01:14:13;;;;;;;2.80;2.20;;;;;;;1.82;97.45;98707.02;105838;1265;69008;-80
2024/01/26 01:16:40;;;;;;;3.20;2.30;;;;;;;1.79;97.56;98707.21;105690;1265;72659;-80
2024/01/26 01:19:07;;;;;;;3.30;2.20;;;;;;;1.76;97.74;98706.10;105957;1263;61305;-79
2024/01/26 01:21:34;;;;;;;4.10;2.60;;;;;;;1.80;97.63;98705.21;106038;1262;60565;-80
2024/01/26 01:24:01;;;;;;;3.50;2.50;;;;;;;1.78;97.84;98708.54;107546;1262;72641;-79
2024/01/26 01:26:28;;;;;;;3.10;2.40;;;;;;;1.71;98.18;98705.67;108682;1262;70219;-79
2024/01/26 01:28:55;;;;;;;2.50;2.10;;;;;;;1.71;98.08;98708.77;108480;1262;71240;-79
2024/01/26 01:31:22;;;;;;;3.60;2.40;;;;;;;1.74;97.69;98710.33;108437;1262;60595;-79
2024/01/26 01:33:48;;;;;;;3.40;2.30;;;;;;;1.73;97.92;98713.00;106945;1265;60316;-80
2024/01/26 01:36:15;;;;;;;3.00;2.40;;;;;;;1.69;98.56;98710.73;105990;1262;73697;-80
2024/01/26 01:38:42;;;;;;;2.50;1.90;;;;;;;1.66;98.99;98713.40;105726;1262;70483;-80
2024/01/26 01:41:09;;;;;;;3.90;2.00;;;;;;;1.75;98.64;98713.16;105577;1262;72459;-83
2024/01/26 01:43:35;;;;;;;2.70;1.90;;;;;;;1.80;98.43;98711.91;105599;1262;60448;-82
2024/01/26 01:46:02;;;;;;;4.60;2.30;;;;;;;1.74;98.66;98709.94;105768;1264;60468;-82
2024/01/26 01:48:29;;;;;;;2.80;2.00;;;;;;;1.66;98.70;98713.27;105891;1266;73832;-83
2024/01/26 01:50:56;;;;;;;2.50;1.80;;;;;;;1.66;98.67;98715.52;105755;1266;68694;-83
2024/01/26 01:53:23;;;;;;;3.50;2.00;;;;;;;1.69;99.08;98718.42;106804;1262;72601;-84
2024/01/26 01:55:50;;;;;;;4.10;2.30;;;;;;;1.69;99.35;98719.80;106792;1262;59198;-83
2024/01/26 01:58:17;;;;;;;2.70;2.40;;;;;;;1.67;99.56;98724.75;105539;1267;60509;-81
2024/01/26 02:00:46;;;;;;;4.20;2.20;;;;;;;1.72;99.13;98728.45;105499;1262;73782;-82
2024/01/26 02:03:13;;;;;;;4.50;2.40;;;;;;;1.73;98.62;98733.24;105399;1262;70093;-79
2024/01/26 02:05:39;;;;;;;3.10;2.20;;;;;;;1.69;98.97;98734.16;105509;1264;72694;-82
2024/01/26 02:08:06;;;;;;;2.60;2.00;;;;;;;1.62;99.10;98738.95;105624;1262;61038;-81
2024/01/26 02:10:33;;;;;;;2.40;1.90;;;;;;;1.68;99.48;98740.52;105381;1266;60359;-80
2024/01/26 02:13:00;;;;;;;3.10;2.20;;;;;;;1.76;99.23;98743.09;105374;1262;73942;-81
2024/01/26 02:15:27;;;;;;;3.20;2.40;;;;;;;1.74;99.22;98742.27;105427;1267;68842;-81
2024/01/26 02:17:54;;;;;;;3.30;2.30;;;;;;;1.70;99.31;98745.53;105585;1262;72495;-81
2024/01/26 02:20:20;;;;;;;4.30;3.00;;;;;;;1.74;99.00;98748.86;105625;1262;61095;-80
2024/01/26 02:23:00;;;;;;;3.30;2.20;;;;;;;1.77;99.10;98754.20;108011;1262;59202;-82
2024/01/26 02:25:27;;;;;;;3.00;2.20;;;;;;;1.72;99.23;98753.73;108647;1262;72583;-82
2024/01/26 02:27:53;;;;;;;3.80;2.10;;;;;;;1.73;98.94;98757.89;107038;1264;68896;-81
2024/01/26 02:30:20;;;;;;;2.80;2.10;;;;;;;1.80;98.63;98758.15;106249;1261;72496;-81
2024/01/26 02:32:47;;;;;;;2.70;2.00;;;;;;;1.79;98.80;98759.94;105919;1267;60407;-83
2024/01/26 02:35:14;;;;;;;3.20;2.50;;;;;;;1.77;98.77;98755.04;105430;1267;60436;-80
2024/01/26 02:37:40;;;;;;;3.90;2.40;;;;;;;1.82;98.27;98759.67;105404;1262;73838;-81
2024/01/26 02:40:09;;;;;;;3.70;2.40;;;;;;;1.88;98.12;98761.83;105400;1262;70412;-82
2024/01/26 02:42:36;;;;;;;2.70;2.10;;;;;;;1.89;98.77;98763.48;105417;1262;72754;-81
2024/01/26 02:45:03;;;;;;;2.90;2.20;;;;;;;1.85;98.47;98767.61;105406;1262;62058;-81
2024/01/26 02:47:30;;;;;;;2.40;2.00;;;;;;;1.89;98.32;98771.50;105351;1262;60483;-81
2024/01/26 02:49:56;;;;;;;3.20;2.30;;;;;;;1.92;97.86;98771.56;105393;1265;73862;-83
2024/01/26 02:52:23;;;;;;;3.40;2.20;;;;;;;1.84;97.74;98769.65;106941;1262;67921;-82
2024/01/26 02:54:51;;;;;;;2.90;2.50;;;;;;;1.82;98.04;98774.25;105716;1262;72570;-82
2024/01/26 02:57:18;;;;;;;2.60;2.00;;;;;;;1.86;97.72;98779.45;105341;1264;60629;-81
2024/01/26 02:59:45;;;;;;;3.20;2.10;;;;;;;1.81;97.72;98781.77;105492;1265;60474;-81
2024/01/26 03:02:12;;;;;;;3.50;2.70;;;;;;;1.73;97.88;98782.64;105549;1262;73748;-82
2024/01/26 03:04:38;;;;;;;3.80;2.50;;;;;;;1.78;97.91;98787.12;105685;1264;68878;-83
2024/01/26 03:07:05;;;;;;;2.70;2.10;;;;;;;1.84;97.64;98784.90;105675;1263;72649;-84
2024/01/26 03:09:32;;;;;;;3.50;2.40;;;;;;;1.82;97.82;98783.99;105438;1262;60682;-84
2024/01/26 03:11:59;;;;;;;2.70;2.20;;;;;;;1.74;97.98;98784.30;106163;1262;60470;-84
2024/01/26 03:14:25;;;;;;;4.00;2.80;;;;;;;1.71;98.05;98781.97;105483;1265;60455;-84
2024/01/26 03:16:52;;;;;;;3.50;2.30;;;;;;;1.80;97.74;98786.38;105448;1267;71572;-84
2024/01/26 03:19:18;;;;;;;3.20;2.60;;;;;;;1.84;97.32;98791.27;106004;1262;60585;-84
2024/01/26 03:21:45;;;;;;;3.40;2.80;;;;;;;1.83;97.53;98798.88;108117;1264;60407;-84
2024/01/26 03:24:12;;;;;;;2.80;2.00;;;;;;;1.78;97.93;98796.72;108776;1262;58863;-83
2024/01/26 03:26:39;;;;;;;2.30;2.00;;;;;;;1.75;97.61;98797.48;107354;1261;72420;-84
2024/01/26 03:29:06;;;;;;;3.10;2.10;;;;;;;1.88;97.93;98802.16;106793;1262;69209;-84
2024/01/26 03:31:33;;;;;;;3.10;2.10;;;;;;;1.92;97.73;98803.54;106318;1262;72583;-83
2024/01/26 03:34:00;;;;;;;3.10;2.50;;;;;;;1.90;98.09;98804.23;105853;1262;60464;-84
2024/01/26 03:36:27;;;;;;;3.50;2.10;;;;;;;1.98;98.21;98807.75;105699;1263;60564;-81
2024/01/26 03:38:54;;;;;;;2.60;2.10;;;;;;;2.06;97.72;98808.44;107669;1262;72502;-81
2024/01/26 03:41:21;;;;;;;3.30;2.50;;;;;;;2.03;97.35;98810.02;107605;1262;70307;-80
2024/01/26 03:43:51;;;;;;;2.70;1.90;;;;;;;1.92;96.96;98813.77;106612;1262;71304;-82
2024/01/26 03:46:19;;;;;;;2.60;2.20;;;;;;;1.93;96.74;98809.91;105443;1265;61052;-83
2024/01/26 03:48:46;;;;;;;3.40;2.70;;;;;;;1.93;96.58;98812.70;107478;1262;60468;-81
2024/01/26 03:51:13;;;;;;;3.00;2.30;;;;;;;1.84;96.50;98815.08;107684;1262;71450;-82
2024/01/26 03:53:39;;;;;;;3.70;2.50;;;;;;;1.74;97.17;98816.61;105595;1262;70190;-82
2024/01/26 03:56:06;;;;;;;3.20;2.40;;;;;;;1.69;96.93;98818.83;105721;1262;72489;-85
2024/01/26 03:58:33;;;;;;;2.20;1.90;;;;;;;1.66;96.73;98822.69;105679;1264;60496;-84
2024/01/26 04:01:00;;;;;;;3.50;2.50;;;;;;;1.66;96.96;98821.30;105765;1262;60336;-81
2024/01/26 04:03:27;;;;;;;3.00;2.30;;;;;;;1.60;97.25;98818.91;105662;1262;72585;-82
2024/01/26 04:05:53;;;;;;;3.40;2.20;;;;;;;1.57;97.86;98820.54;105412;1264;69062;-82
2024/01/26 04:08:20;;;;;;;4.50;2.60;;;;;;;1.60;97.66;98822.00;105721;1262;72591;-81
2024/01/26 04:10:47;;;;;;;3.30;2.20;;;;;;;1.60;97.30;98827.61;105606;1262;60901;-82
2024/01/26 04:13:13;;;;;;;2.80;2.50;;;;;;;1.52;97.52;98833.17;105659;1261;60563;-80
2024/01/26 04:15:40;;;;;;;3.30;2.40;;;;;;;1.44;98.11;98834.95;105903;1267;73686;-80
2024/01/26 04:18:07;;;;;;;2.50;2.00;;;;;;;1.47;98.43;98837.48;106242;1262;60549;-82
2024/01/26 04:20:34;;;;;;;2.80;2.10;;;;;;;1.52;98.01;98843.16;107933;1262;71508;-81
2024/01/26 04:23:00;;;;;;;4.60;3.30;;;;;;;1.55;98.11;98843.95;108682;1261;59226;-83
2024/01/26 04:25:27;;;;;;;2.50;2.10;;;;;;;1.49;98.15;98852.11;107866;1262;60558;-84
2024/01/26 04:27:54;;;;;;;3.60;2.20;;;;;;;1.50;98.52;98851.89;107449;1262;73759;-85
2024/01/26 04:30:20;;;;;;;4.50;2.10;;;;;;;1.55;97.95;98852.30;107302;1263;68940;-85
2024/01/26 04:32:48;;;;;;;2.20;1.50;;;;;;;1.61;98.07;98850.02;106099;1268;72617;-84
2024/01/26 04:35:15;;;;;;;2.70;2.00;;;;;;;1.61;98.04;98853.66;105436;1267;60545;-83
2024/01/26 04:37:41;;;;;;;2.80;1.70;;;;;;;1.56;97.76;98856.90;105393;1262;60579;-84
2024/01/26 04:40:08;;;;;;;2.60;2.00;;;;;;;1.56;97.39;98857.30;105569;1262;73182;-84
2024/01/26 04:42:35;;;;;;;2.40;2.10;;;;;;;1.58;97.25;98864.27;105915;1262;70318;-84
2024/01/26 04:45:03;;;;;;;3.70;2.40;;;;;;;1.52;97.33;98868.08;106576;1262;71423;-84
2024/01/26 04:47:30;;;;;;;3.20;2.00;;;;;;;1.47;97.84;98869.79;107579;1262;61199;-86
2024/01/26 04:49:56;;;;;;;2.60;1.80;;;;;;;1.45;97.65;98873.89;107718;1262;60381;-86
2024/01/26 04:52:23;;;;;;;2.40;1.70;;;;;;;1.46;97.15;98875.23;105988;1262;72458;-84
2024/01/26 04:54:50;;;;;;;3.30;2.50;;;;;;;1.44;97.15;98877.88;105863;1262;70167;-82
2024/01/26 04:57:17;;;;;;;3.50;2.00;;;;;;;1.35;97.51;98877.23;105592;1262;74020;-81
2024/01/26 04:59:44;;;;;;;2.30;2.00;;;;;;;1.28;98.04;98881.13;106027;1267;60445;-83
2024/01/26 05:02:10;;;;;;;2.50;1.90;;;;;;;1.32;98.10;98884.10;105437;1262;60418;-83
2024/01/26 05:04:37;;;;;;;3.00;2.00;;;;;;;1.34;98.01;98886.31;105483;1262;73775;-81
2024/01/26 05:07:04;;;;;;;2.70;2.10;;;;;;;1.33;98.58;98888.02;105439;1262;70231;-82
2024/01/26 05:09:31;;;;;;;2.30;2.10;;;;;;;1.28;98.98;98886.31;105400;1264;71185;-79
2024/01/26 05:11:57;;;;;;;2.50;1.80;;;;;;;1.30;99.03;98887.05;105354;1262;61039;-81
2024/01/26 05:14:24;;;;;;;3.20;2.20;;;;;;;1.34;98.57;98891.74;106270;1262;60470;-82
2024/01/26 05:16:51;;;;;;;2.80;2.10;;;;;;;1.36;98.66;98896.47;106000;1262;73965;-80
2024/01/26 05:19:19;;;;;;;2.50;1.90;;;;;;;1.33;99.01;98902.17;108065;1262;69652;-82
2024/01/26 05:21:46;;;;;;;3.20;2.40;;;;;;;1.29;98.82;98902.48;108710;1262;71285;-78
2024/01/26 05:24:12;;;;;;;3.50;2.90;;;;;;;1.33;98.68;98903.73;107633;1262;60345;-80
2024/01/26 05:26:39;;;;;;;3.00;2.60;;;;;;;1.39;98.43;98905.64;105953;1261;60395;-80
2024/01/26 05:29:07;;;;;;;3.30;2.20;;;;;;;1.35;98.67;98905.59;107953;1262;72433;-81
2024/01/26 05:31:35;;;;;;;4.20;3.00;;;;;;;1.34;99.01;98907.64;108563;1261;67920;-82
2024/01/26 05:34:03;;;;;;;3.60;2.90;;;;;;;1.40;98.69;98912.21;108458;1262;71424;-82
2024/01/26 05:36:30;;;;;;;2.20;2.00;;;;;;;1.47;98.24;98913.71;107009;1263;60449;-80
2024/01/26 05:38:57;;;;;;;2.20;2.00;;;;;;;1.44;98.36;98921.80;106680;1262;60824;-79
2024/01/26 05:41:24;;;;;;;2.80;2.30;;;;;;;1.42;98.81;98929.38;106453;1264;73882;-82
2024/01/26 05:43:50;;;;;;;3.00;2.70;;;;;;;1.43;98.88;98930.64;106441;1265;70327;-83
2024/01/26 05:46:17;;;;;;;2.80;2.30;;;;;;;1.54;98.62;98936.86;107381;1262;71907;-83
2024/01/26 05:48:44;;;;;;;3.80;2.50;;;;;;;1.57;98.32;98939.01;106725;1261;60353;-84
2024/01/26 05:51:12;;;;;;;2.90;1.90;;;;;;;1.53;98.31;98941.98;105766;1262;60461;-84
2024/01/26 05:53:39;;;;;;;2.30;2.00;;;;;;;1.44;98.25;98947.11;105752;1262;72464;-84
2024/01/26 05:56:06;;;;;;;2.20;1.90;;;;;;;1.43;98.25;98951.73;105664;1265;70070;-84
2024/01/26 05:58:33;;;;;;;3.60;2.80;;;;;;;1.49;98.36;98954.89;105652;1262;73134;-84
2024/01/26 06:00:59;;;;;;;3.10;2.50;;;;;;;1.50;98.78;98954.13;105493;1262;60783;-78
2024/01/26 06:03:26;;;;;;;3.20;2.50;;;;;;;1.44;98.71;98960.23;105368;1267;60327;-78
2024/01/26 06:05:53;;;;;;;4.40;2.90;;;;;;;1.41;98.40;98962.75;105401;1265;73706;-77
2024/01/26 06:08:20;;;;;;;3.50;2.70;;;;;;;1.45;98.47;98963.48;105349;1262;70218;-77
2024/01/26 06:10:47;;;;;;;3.30;2.70;;;;;;;1.41;98.39;98964.11;105345;1262;71651;-77
2024/01/26 06:13:14;;;;;;;4.20;3.20;;;;;;;1.36;98.69;98971.15;105495;1262;61335;-77
2024/01/26 06:15:41;;;;;;;4.00;3.20;;;;;;;1.44;98.89;98971.75;105471;1262;60727;-75
2024/01/26 06:18:07;;;;;;;4.60;3.10;;;;;;;1.49;98.94;98973.70;107496;1263;72379;-78
2024/01/26 06:20:35;;;;;;;5.10;3.40;;;;;;;1.45;99.05;98978.27;108383;1261;68164;-77
2024/01/26 06:23:02;;;;;;;5.10;3.10;;;;;;;1.46;99.45;98985.02;106632;1267;72507;-77
2024/01/26 06:25:29;;;;;;;4.70;3.60;;;;;;;1.53;99.01;98990.52;105368;1262;60508;-76
2024/01/26 06:27:56;;;;;;;4.20;3.60;;;;;;;1.63;99.36;98990.23;105424;1262;60485;-78
2024/01/26 06:30:22;;;;;;;4.70;3.60;;;;;;;1.64;99.40;98996.80;105376;1266;73882;-77
2024/01/26 06:32:49;;;;;;;4.90;3.30;;;;;;;1.61;99.42;98997.00;105295;1262;70367;-79
2024/01/26 06:35:17;;;;;;;4.90;3.30;;;;;;;1.66;98.92;99002.84;105235;1262;71578;-79
2024/01/26 06:37:44;;;;;;;5.10;3.40;;;;;;;1.69;98.56;99006.48;105373;1264;60555;-80
2024/01/26 06:40:11;;;;;;;5.20;3.40;;;;;;;1.65;98.43;99008.36;105545;1262;60382;-79
2024/01/26 06:42:39;;;;;;;3.40;2.60;;;;;;;1.56;98.50;99017.45;105912;1265;73759;-78
2024/01/26 06:45:10;;;;;;;3.80;2.90;;;;;;;1.57;98.43;99017.08;106554;1262;70891;-80
2024/01/26 06:47:37;;;;;;;5.40;3.60;;;;;;;1.60;98.27;99018.52;105627;1262;72830;-79
2024/01/26 06:50:05;;;;;;;3.90;2.90;;;;;;;1.57;98.11;99017.27;105302;1264;60545;-80
2024/01/26 06:52:32;;;;;;;4.00;3.60;;;;;;;1.52;98.82;99018.35;105495;1264;60385;-80
2024/01/26 06:54:59;;;;;;;3.70;3.30;;;;;;;1.54;98.26;99025.82;105385;1262;72482;-80
2024/01/26 06:57:26;;;;;;;4.60;4.10;;;;;;;1.54;97.73;99030.56;105502;1262;69030;-80
2024/01/26 06:59:53;;;;;;;5.80;4.20;;;;;;;1.48;97.70;99033.52;105696;1262;72823;-79
2024/01/26 07:02:20;;;;;;;6.50;3.80;;;;;;;1.41;98.08;99032.55;105629;1265;61258;-80
2024/01/26 07:04:47;;;;;;;5.60;3.90;;;;;;;1.48;98.27;99038.77;106307;1261;60419;-80
2024/01/26 07:07:14;;;;;;;4.50;4.00;;;;;;;1.55;98.10;99044.13;105754;1262;72779;-78
2024/01/26 07:09:41;;;;;;;5.00;3.60;;;;;;;1.56;98.26;99045.73;105912;1262;69487;-79
2024/01/26 07:12:08;;;;;;;4.60;4.10;;;;;;;1.56;98.98;99049.96;106032;1262;72545;-80
2024/01/26 07:14:35;;;;;;;3.30;2.80;;;;;;;1.62;99.19;99050.72;107723;1262;62052;-79
2024/01/26 07:17:02;;;;;;;4.40;3.50;;;;;;;1.68;98.31;99057.86;107697;1262;59220;-82
2024/01/26 07:19:29;;;;;;;4.30;3.10;;;;;;;1.73;98.43;99060.39;107948;1265;72648;-81
2024/01/26 07:21:56;;;;;;;4.40;3.10;;;;;;;1.68;97.82;99065.04;107464;1262;69692;-80
2024/01/26 07:24:23;;;;;;;4.00;3.10;;;;;;;1.63;97.87;99068.54;108651;1262;71232;-81
2024/01/26 07:26:50;;;;;;;3.80;3.20;;;;;;;1.69;97.63;99068.05;106102;1262;60319;-81
2024/01/26 07:29:17;;;;;;;4.20;2.90;;;;;;;1.72;97.43;99072.04;106015;1263;60519;-82
2024/01/26 07:31:45;;;;;;;4.60;3.60;;;;;;;1.66;97.65;99067.42;105862;1262;74343;-80
2024/01/26 07:34:12;;;;;;;4.30;3.70;;;;;;;1.74;98.11;99070.92;106335;1262;69066;-81
2024/01/26 07:36:40;;;;;;;5.00;3.60;;;;;;;1.81;97.94;99074.60;105936;1270;71095;-80
2024/01/26 07:39:07;;;;;;;5.80;4.20;;;;;;;1.77;97.74;99078.73;105654;1262;60489;-80
2024/01/26 07:41:34;;;;;;;7.30;3.90;;;;;;;1.71;97.94;99079.92;106385;1264;60387;-82
2024/01/26 07:44:01;;;;;;;5.90;4.00;;;;;;;1.79;97.97;99090.50;106991;1262;73697;-81
2024/01/26 07:46:28;;;;;;;5.50;4.60;;;;;;;1.84;97.70;99094.23;105715;1269;69019;-80
2024/01/26 07:48:55;;;;;;;5.60;5.00;;;;;;;1.84;97.93;99099.33;105691;1270;72739;-80
2024/01/26 07:51:22;;;;;;;4.90;3.90;;;;;;;1.76;97.85;99105.76;106305;1262;61099;-79
2024/01/26 07:53:51;;;;;;;5.90;4.20;;;;;;;1.79;97.82;99113.52;107129;1264;253562;-79
2024/01/26 07:58:37;;;;;;;7.70;4.40;;;;;;;1.86;97.77;99116.81;103168;1295;599640;-79
2024/01/26 08:01:05;;;;;;;8.60;6.10;;;;;;;1.82;98.32;99123.71;105454;1262;60379;-80
2024/01/26 08:03:33;;;;;;;16.00;10.40;;;;;;;1.91;98.31;99120.25;105353;1270;59145;-80
2024/01/26 08:06:02;;;;;;;15.80;11.80;;;;;;;1.98;97.98;99124.20;105674;1268;70927;-79
2024/01/26 08:08:30;;;;;;;13.50;9.70;;;;;;;1.95;97.58;99128.40;105510;1266;68711;-80
2024/01/26 08:10:57;;;;;;;14.00;10.40;;;;;;;1.91;97.84;99135.88;106043;1262;70947;-79
2024/01/26 08:13:25;;;;;;;16.10;13.30;;;;;;;1.99;97.75;99131.80;106694;1265;155386;-79
2024/01/26 08:15:54;;;;;;;12.50;9.50;;;;;;;2.08;97.69;99132.21;108269;1259;59159;-81
2024/01/26 08:18:22;;;;;;;10.20;8.50;;;;;;;2.12;97.99;99139.34;107491;1258;70698;-80
2024/01/26 08:20:52;;;;;;;7.70;6.30;;;;;;;2.16;98.05;99139.23;106979;1259;69132;-80
2024/01/26 08:23:20;;;;;;;6.00;3.40;;;;;;;2.26;97.47;99146.27;106157;1259;71498;-80
2024/01/26 08:25:48;;;;;;;6.30;5.10;;;;;;;2.35;97.53;99149.02;106284;1259;59675;-80
2024/01/26 08:28:15;;;;;;;7.70;6.10;;;;;;;2.31;97.02;99152.98;106018;1259;59671;-80
2024/01/26 08:30:43;;;;;;;7.80;5.50;;;;;;;2.28;97.23;99155.20;106601;1256;72100;-81
2024/01/26 08:33:11;;;;;;;6.50;5.80;;;;;;;2.35;97.16;99150.18;106305;1256;69295;-80
2024/01/26 08:35:39;;;;;;;4.30;3.90;;;;;;;2.41;96.96;99158.98;105993;1257;70517;-80
2024/01/26 08:38:07;;;;;;;4.30;3.30;;;;;;;2.37;97.07;99157.91;105978;1263;59786;-81
2024/01/26 08:40:35;;;;;;;5.50;4.40;;;;;;;2.35;97.04;99161.09;107559;1257;60218;-81
2024/01/26 08:43:03;;;;;;;6.00;5.30;;;;;;;2.42;96.81;99162.93;106536;1263;71776;-81
2024/01/26 08:45:30;;;;;;;6.90;5.90;;;;;;;2.46;96.52;99161.02;106986;1256;70537;-83
2024/01/26 08:47:58;;;;;;;8.20;6.20;;;;;;;2.37;95.87;99163.84;107617;1256;71519;-82
2024/01/26 08:50:26;;;;;;;12.20;7.50;;;;;;;2.29;95.86;99168.16;107353;1256;61081;-84
2024/01/26 08:52:53;;;;;;;10.20;7.30;;;;;;;2.32;95.63;99170.44;106936;1259;60198;-83
2024/01/26 08:55:22;;;;;;;11.10;7.60;;;;;;;2.33;95.66;99169.62;105807;1264;72039;-84
2024/01/26 08:58:20;;;;;;;13.00;9.80;;;;;;;2.30;96.29;99169.86;105796;1256;72095;-80
2024/01/26 09:00:47;;;;;;;19.40;15.00;;;;;;;2.32;96.95;99169.52;105905;1256;71323;-82
2024/01/26 09:03:15;;;;;;;11.70;8.70;;;;;;;2.46;97.39;99171.02;105742;1256;60209;-82
2024/01/26 09:05:43;;;;;;;5.90;4.30;;;;;;;2.52;97.33;99175.02;105676;1261;59985;-82
2024/01/26 09:08:10;;;;;;;4.70;3.10;;;;;;;2.51;97.18;99176.51;106237;1256;71748;-80
2024/01/26 09:10:38;;;;;;;4.70;2.60;;;;;;;2.58;97.20;99181.52;108459;1256;68770;-82
2024/01/26 09:13:07;;;;;;;2.90;2.40;;;;;;;2.61;96.69;99182.34;107025;1255;72476;-81
2024/01/26 09:15:34;;;;;;;2.70;2.40;;;;;;;2.58;96.25;99189.21;108642;1253;60730;-82
2024/01/26 09:18:02;;;;;;;3.30;2.30;;;;;;;2.62;95.28;99187.66;108734;1256;58722;-81
2024/01/26 09:20:31;;;;;;;3.00;2.60;;;;;;;2.68;95.18;99189.73;107475;1254;74547;-80
2024/01/26 09:22:59;;;;;;;1.70;1.60;;;;;;;2.71;95.12;99187.35;107307;1256;69185;-81
2024/01/26 09:25:29;;;;;;;3.30;1.70;;;;;;;2.80;95.97;99190.11;106987;1256;73497;-83
2024/01/26 09:27:56;;;;;;;2.30;2.00;;;;;;;2.97;95.42;99186.89;106641;1257;61736;-82
2024/01/26 09:30:24;;;;;;;2.10;1.90;;;;;;;3.15;95.34;99190.25;107248;1256;59520;-82
2024/01/26 09:32:52;;;;;;;3.00;2.50;;;;;;;3.31;96.05;99186.70;108709;1256;74064;-81
2024/01/26 09:35:20;;;;;;;3.70;3.10;;;;;;;3.53;97.81;99188.17;108701;1256;69011;-84
2024/01/26 09:37:48;;;;;;;3.50;2.60;;;;;;;3.77;97.38;99190.52;108997;1253;71589;-80
2024/01/26 09:40:15;;;;;;;4.10;3.70;;;;;;;3.92;95.84;99191.77;107989;1255;59702;-81
2024/01/26 09:42:43;;;;;;;3.40;2.40;;;;;;;3.97;95.13;99189.77;107686;1256;59793;-83
2024/01/26 09:45:11;;;;;;;3.60;3.20;;;;;;;3.88;93.16;99187.46;107094;1254;74494;-82
2024/01/26 09:47:42;;;;;;;2.80;2.50;;;;;;;3.79;92.14;99185.84;107780;1256;71417;-83
2024/01/26 09:50:11;;;;;;;2.70;2.20;;;;;;;3.70;92.06;99186.03;106960;1255;73610;-82
2024/01/26 09:52:38;;;;;;;2.90;2.60;;;;;;;3.62;92.12;99186.77;107494;1254;60261;-82
2024/01/26 09:55:06;;;;;;;3.90;2.40;;;;;;;3.50;91.23;99188.00;106778;1256;60182;-82
2024/01/26 09:57:34;;;;;;;3.10;2.10;;;;;;;3.45;91.14;99186.61;106694;1257;74065;-82
2024/01/26 10:00:04;;;;;;;3.60;2.10;;;;;;;3.45;91.74;99190.02;106551;1257;71553;-81
2024/01/26 10:02:32;;;;;;;6.40;5.20;;;;;;;3.37;91.08;99192.30;106945;1255;73268;-80
2024/01/26 10:05:00;;;;;;;6.70;6.00;;;;;;;3.24;90.24;99194.20;106773;1261;60489;-81
2024/01/26 10:07:27;;;;;;;4.70;3.40;;;;;;;3.14;89.70;99195.41;107855;1255;62261;-80
2024/01/26 10:09:55;;;;;;;3.20;2.80;;;;;;;3.08;90.57;99197.11;108159;1255;71118;-82
2024/01/26 10:12:23;;;;;;;3.00;2.40;;;;;;;3.05;91.39;99198.27;107650;1255;71812;-81
2024/01/26 10:15:09;;;;;;;4.60;3.10;;;;;;;3.01;91.49;99201.95;109009;1256;76465;31
2024/01/26 10:17:38;;;;;;;5.70;5.10;;;;;;;3.03;90.96;99198.63;108630;1258;60434;-81
2024/01/26 10:20:08;;;;;;;5.30;4.80;;;;;;;3.09;91.21;99204.19;108217;1259;59654;-80
2024/01/26 10:22:37;;;;;;;6.70;5.80;;;;;;;3.05;91.44;99201.20;108682;1257;71842;-81
2024/01/26 10:25:05;;;;;;;5.60;4.50;;;;;;;3.00;91.57;99205.60;108106;1259;71091;-83
2024/01/26 10:27:34;;;;;;;6.80;5.00;;;;;;;3.02;91.21;99207.16;108485;1258;73796;-81
2024/01/26 10:30:07;;;;;;;6.30;4.30;;;;;;;3.00;90.98;99208.36;108290;1259;60123;-83
2024/01/26 10:32:36;;;;;;;7.90;6.40;;;;;;;2.91;90.92;99212.08;108794;1259;58727;-83
2024/01/26 10:35:05;;;;;;;10.10;8.30;;;;;;;2.86;91.52;99215.67;108026;1259;72000;-79
2024/01/26 10:37:34;;;;;;;6.70;5.20;;;;;;;2.92;91.25;99215.25;108220;1259;71621;-81
2024/01/26 10:40:09;;;;;;;6.20;5.60;;;;;;;2.87;91.25;99221.02;108655;1259;71847;-82
2024/01/26 10:42:37;;;;;;;6.30;5.60;;;;;;;2.79;91.58;99225.70;107983;1259;62008;-83
2024/01/26 10:45:06;;;;;;;6.70;5.50;;;;;;;2.84;91.67;99224.62;107418;1259;59116;-82
2024/01/26 10:47:39;;;;;;;6.10;5.10;;;;;;;2.88;91.65;99228.42;108204;1257;72360;-84
2024/01/26 10:50:09;;;;;;;7.20;6.00;;;;;;;2.85;91.44;99231.27;107166;1259;70344;-82
2024/01/26 10:55:52;;;;;;;9.40;7.50;;;;;;;2.82;91.53;99237.51;107049;1259;63026;-82
2024/01/26 10:58:25;;;;;;;6.10;4.60;;;;;;;2.89;91.63;99233.95;107027;1259;59744;-83
2024/01/26 11:00:54;;;;;;;5.90;4.10;;;;;;;2.83;91.63;99236.56;106271;1256;73965;-82
2024/01/26 11:03:21;;;;;;;4.00;2.90;;;;;;;2.77;91.74;99233.91;107090;1256;69438;-82
2024/01/26 11:05:50;;;;;;;3.40;2.30;;;;;;;2.81;91.10;99236.92;108274;1256;73610;-80
2024/01/26 11:08:22;;;;;;;4.30;2.70;;;;;;;2.80;90.87;99237.31;106892;1263;61183;-82
2024/01/26 11:10:50;;;;;;;3.60;2.60;;;;;;;2.78;91.28;99239.28;106383;1257;60766;-82
2024/01/26 11:13:18;;;;;;;3.70;2.60;;;;;;;2.72;91.52;99239.23;108091;1258;71501;-84
2024/01/26 11:15:47;;;;;;;4.50;2.90;;;;;;;2.72;92.26;99248.34;108689;1256;70846;-80
2024/01/26 11:18:25;;;;;;;4.90;4.40;;;;;;;2.79;91.62;99251.40;107342;1256;71518;-80
2024/01/26 11:20:53;;;;;;;6.50;4.70;;;;;;;2.82;91.66;99252.54;107202;1258;59350;-81
2024/01/26 11:23:23;;;;;;;7.60;6.20;;;;;;;2.77;91.61;99253.49;106965;1256;60032;-79
2024/01/26 11:25:56;;;;;;;6.00;4.70;;;;;;;2.68;91.77;99259.55;106892;1265;71214;-81
2024/01/26 11:28:29;;;;;;;7.20;5.00;;;;;;;2.65;91.54;99260.50;106524;1256;72233;-88
2024/01/26 11:31:10;;;;;;;8.20;5.50;;;;;;;2.64;91.95;99264.94;107245;1256;71662;-87
2024/01/26 11:37:10;;;;;;;7.30;6.10;;;;;;;2.60;92.71;99274.16;101699;1273;961953;-87
2024/01/26 11:39:40;;;;;;;12.20;10.30;;;;;;;2.63;92.73;99271.95;106552;1273;71950;-87
2024/01/26 11:42:11;;;;;;;9.70;8.60;;;;;;;2.67;92.78;99273.38;105871;1273;70497;-86
2024/01/26 11:44:49;;;;;;;9.10;8.20;;;;;;;2.65;93.15;99272.84;106298;1274;72508;-87